sensor_id;sensor_type;location;lat;lon;timestamp;temperature;humidity
578;DHT22;275;48.492;9.214;2023-04-15T00:00:50;9.30;28.20
578;DHT22;275;48.492;9.214;2023-04-15T00:03:19;9.40;28.20
578;DHT22;275;48.492;9.214;2023-04-15T00:05:45;9.50;28.00
578;DHT22;275;48.492;9.214;2023-04-15T00:08:12;9.40;28.40
578;DHT22;275;48.492;9.214;2023-04-15T00:10:41;9.10;28.80
578;DHT22;275;48.492;9.214;2023-04-15T00:13:08;8.90;29.40
578;DHT22;275;48.492;9.214;2023-04-15T00:15:36;8.40;30.10
578;DHT22;275;48.492;9.214;2023-04-15T00:18:03;8.40;30.40
578;DHT22;275;48.492;9.214;2023-04-15T00:20:30;8.60;29.80
578;DHT22;275;48.492;9.214;2023-04-15T00:22:57;9.10;29.10
578;DHT22;275;48.492;9.214;2023-04-15T00:25:25;9.60;28.30
578;DHT22;275;48.492;9.214;2023-04-15T00:27:53;9.80;28.00
578;DHT22;275;48.492;9.214;2023-04-15T00:30:20;9.80;28.10
578;DHT22;275;48.492;9.214;2023-04-15T00:32:47;9.90;27.90
578;DHT22;275;48.492;9.214;2023-04-15T00:35:14;9.80;27.90
578;DHT22;275;48.492;9.214;2023-04-15T00:37:41;9.50;28.30
578;DHT22;275;48.492;9.214;2023-04-15T00:40:09;9.30;28.60
578;DHT22;275;48.492;9.214;2023-04-15T00:42:38;9.20;28.70
578;DHT22;275;48.492;9.214;2023-04-15T00:45:07;9.20;28.50
578;DHT22;275;48.492;9.214;2023-04-15T00:47:35;9.10;29.00
578;DHT22;275;48.492;9.214;2023-04-15T00:50:02;9.00;29.10
578;DHT22;275;48.492;9.214;2023-04-15T00:52:29;8.40;31.20
578;DHT22;275;48.492;9.214;2023-04-15T00:54:56;8.50;30.50
578;DHT22;275;48.492;9.214;2023-04-15T00:57:23;8.70;30.00
578;DHT22;275;48.492;9.214;2023-04-15T00:59:50;8.80;30.00
578;DHT22;275;48.492;9.214;2023-04-15T01:02:19;9.00;29.80
578;DHT22;275;48.492;9.214;2023-04-15T01:04:47;9.00;29.70
578;DHT22;275;48.492;9.214;2023-04-15T01:07:14;9.00;29.70
578;DHT22;275;48.492;9.214;2023-04-15T01:09:42;8.90;30.00
578;DHT22;275;48.492;9.214;2023-04-15T01:12:11;8.30;31.20
578;DHT22;275;48.492;9.214;2023-04-15T01:14:40;7.90;32.40
578;DHT22;275;48.492;9.214;2023-04-15T01:17:06;8.10;32.00
578;DHT22;275;48.492;9.214;2023-04-15T01:19:35;8.30;32.10
578;DHT22;275;48.492;9.214;2023-04-15T01:22:02;8.30;31.70
578;DHT22;275;48.492;9.214;2023-04-15T01:24:31;8.60;30.80
578;DHT22;275;48.492;9.214;2023-04-15T01:26:59;8.90;29.90
578;DHT22;275;48.492;9.214;2023-04-15T01:29:26;9.00;29.70
578;DHT22;275;48.492;9.214;2023-04-15T01:31:54;8.50;30.30
578;DHT22;275;48.492;9.214;2023-04-15T01:34:22;8.60;30.40
578;DHT22;275;48.492;9.214;2023-04-15T01:36:49;8.60;30.20
578;DHT22;275;48.492;9.214;2023-04-15T01:39:15;8.90;29.70
578;DHT22;275;48.492;9.214;2023-04-15T01:41:42;9.10;29.50
578;DHT22;275;48.492;9.214;2023-04-15T01:44:11;8.90;29.80
578;DHT22;275;48.492;9.214;2023-04-15T01:46:38;8.70;30.30
578;DHT22;275;48.492;9.214;2023-04-15T01:49:04;8.60;30.40
578;DHT22;275;48.492;9.214;2023-04-15T01:51:32;8.50;30.80
578;DHT22;275;48.492;9.214;2023-04-15T01:53:58;8.60;30.70
578;DHT22;275;48.492;9.214;2023-04-15T01:56:25;8.60;30.70
578;DHT22;275;48.492;9.214;2023-04-15T01:58:52;8.50;31.00
578;DHT22;275;48.492;9.214;2023-04-15T02:01:20;8.50;31.00
578;DHT22;275;48.492;9.214;2023-04-15T02:03:47;8.10;32.00
578;DHT22;275;48.492;9.214;2023-04-15T02:06:14;8.20;31.60
578;DHT22;275;48.492;9.214;2023-04-15T02:08:41;8.30;31.60
578;DHT22;275;48.492;9.214;2023-04-15T02:11:08;8.30;31.40
578;DHT22;275;48.492;9.214;2023-04-15T02:13:35;8.10;31.90
578;DHT22;275;48.492;9.214;2023-04-15T02:16:02;8.10;31.80
578;DHT22;275;48.492;9.214;2023-04-15T02:18:30;8.40;31.20
578;DHT22;275;48.492;9.214;2023-04-15T02:20:57;8.30;31.10
578;DHT22;275;48.492;9.214;2023-04-15T02:23:24;8.30;31.40
578;DHT22;275;48.492;9.214;2023-04-15T02:25:51;8.30;31.30
578;DHT22;275;48.492;9.214;2023-04-15T02:28:17;8.30;31.10
578;DHT22;275;48.492;9.214;2023-04-15T02:30:46;8.40;31.00
578;DHT22;275;48.492;9.214;2023-04-15T02:33:15;8.50;30.80
578;DHT22;275;48.492;9.214;2023-04-15T02:35:43;8.40;31.00
578;DHT22;275;48.492;9.214;2023-04-15T02:38:10;8.40;31.10
578;DHT22;275;48.492;9.214;2023-04-15T02:40:38;8.50;30.90
578;DHT22;275;48.492;9.214;2023-04-15T02:43:05;8.50;30.90
578;DHT22;275;48.492;9.214;2023-04-15T02:45:32;8.30;31.20
578;DHT22;275;48.492;9.214;2023-04-15T02:47:59;8.50;30.40
578;DHT22;275;48.492;9.214;2023-04-15T02:50:30;8.40;30.40
578;DHT22;275;48.492;9.214;2023-04-15T02:52:58;8.40;30.20
578;DHT22;275;48.492;9.214;2023-04-15T02:55:25;8.40;30.00
578;DHT22;275;48.492;9.214;2023-04-15T02:57:52;8.20;30.60
578;DHT22;275;48.492;9.214;2023-04-15T03:00:19;8.20;30.60
578;DHT22;275;48.492;9.214;2023-04-15T03:02:49;8.10;30.70
578;DHT22;275;48.492;9.214;2023-04-15T03:05:20;7.90;31.20
578;DHT22;275;48.492;9.214;2023-04-15T03:07:49;7.80;31.50
578;DHT22;275;48.492;9.214;2023-04-15T03:10:17;7.80;31.50
578;DHT22;275;48.492;9.214;2023-04-15T03:12:44;7.90;31.60
578;DHT22;275;48.492;9.214;2023-04-15T03:15:11;7.70;31.80
578;DHT22;275;48.492;9.214;2023-04-15T03:17:38;7.30;32.90
578;DHT22;275;48.492;9.214;2023-04-15T03:20:05;7.30;32.90
578;DHT22;275;48.492;9.214;2023-04-15T03:22:33;7.20;32.80
578;DHT22;275;48.492;9.214;2023-04-15T03:25:00;7.30;32.80
578;DHT22;275;48.492;9.214;2023-04-15T03:27:28;7.40;32.40
578;DHT22;275;48.492;9.214;2023-04-15T03:29:55;7.50;32.10
578;DHT22;275;48.492;9.214;2023-04-15T03:32:22;7.70;31.50
578;DHT22;275;48.492;9.214;2023-04-15T03:34:49;7.90;31.30
578;DHT22;275;48.492;9.214;2023-04-15T03:37:15;7.90;31.20
578;DHT22;275;48.492;9.214;2023-04-15T03:39:42;7.80;31.00
578;DHT22;275;48.492;9.214;2023-04-15T03:42:09;8.00;30.60
578;DHT22;275;48.492;9.214;2023-04-15T03:44:37;8.10;30.50
578;DHT22;275;48.492;9.214;2023-04-15T03:47:04;8.00;30.70
578;DHT22;275;48.492;9.214;2023-04-15T03:49:31;8.00;31.10
578;DHT22;275;48.492;9.214;2023-04-15T03:51:58;7.90;31.50
578;DHT22;275;48.492;9.214;2023-04-15T03:54:25;7.80;31.90
578;DHT22;275;48.492;9.214;2023-04-15T03:56:51;8.00;31.60
578;DHT22;275;48.492;9.214;2023-04-15T03:59:18;8.00;31.10
578;DHT22;275;48.492;9.214;2023-04-15T04:01:46;8.00;31.40
578;DHT22;275;48.492;9.214;2023-04-15T04:04:13;7.90;31.90
578;DHT22;275;48.492;9.214;2023-04-15T04:06:48;7.60;32.00
578;DHT22;275;48.492;9.214;2023-04-15T04:09:15;7.30;32.60
578;DHT22;275;48.492;9.214;2023-04-15T04:11:42;7.40;32.50
578;DHT22;275;48.492;9.214;2023-04-15T04:14:10;7.50;31.90
578;DHT22;275;48.492;9.214;2023-04-15T04:16:36;7.50;31.90
578;DHT22;275;48.492;9.214;2023-04-15T04:19:05;7.50;32.10
578;DHT22;275;48.492;9.214;2023-04-15T04:21:32;7.10;33.40
578;DHT22;275;48.492;9.214;2023-04-15T04:23:59;6.50;35.50
578;DHT22;275;48.492;9.214;2023-04-15T04:26:26;6.20;36.50
578;DHT22;275;48.492;9.214;2023-04-15T04:28:53;6.00;37.20
578;DHT22;275;48.492;9.214;2023-04-15T04:31:20;6.10;36.80
578;DHT22;275;48.492;9.214;2023-04-15T04:33:48;6.20;36.70
578;DHT22;275;48.492;9.214;2023-04-15T04:36:16;5.90;37.20
578;DHT22;275;48.492;9.214;2023-04-15T04:38:43;6.00;37.20
578;DHT22;275;48.492;9.214;2023-04-15T04:41:10;6.30;36.50
578;DHT22;275;48.492;9.214;2023-04-15T04:43:37;6.70;35.00
578;DHT22;275;48.492;9.214;2023-04-15T04:46:04;7.20;33.90
578;DHT22;275;48.492;9.214;2023-04-15T04:48:31;7.30;33.30
578;DHT22;275;48.492;9.214;2023-04-15T04:50:58;7.40;32.80
578;DHT22;275;48.492;9.214;2023-04-15T04:53:26;7.30;33.20
578;DHT22;275;48.492;9.214;2023-04-15T04:55:53;7.10;33.50
578;DHT22;275;48.492;9.214;2023-04-15T04:58:20;7.40;33.00
578;DHT22;275;48.492;9.214;2023-04-15T05:00:47;7.60;32.40
578;DHT22;275;48.492;9.214;2023-04-15T05:03:25;7.50;32.50
578;DHT22;275;48.492;9.214;2023-04-15T05:05:56;7.70;32.20
578;DHT22;275;48.492;9.214;2023-04-15T05:08:23;7.50;32.60
578;DHT22;275;48.492;9.214;2023-04-15T05:10:51;7.60;32.40
578;DHT22;275;48.492;9.214;2023-04-15T05:13:18;7.60;32.10
578;DHT22;275;48.492;9.214;2023-04-15T05:15:46;7.60;32.00
578;DHT22;275;48.492;9.214;2023-04-15T05:18:13;7.50;32.00
578;DHT22;275;48.492;9.214;2023-04-15T05:20:39;7.40;32.10
578;DHT22;275;48.492;9.214;2023-04-15T05:23:06;7.30;32.90
578;DHT22;275;48.492;9.214;2023-04-15T05:25:33;7.30;32.90
578;DHT22;275;48.492;9.214;2023-04-15T05:28:02;7.20;33.30
578;DHT22;275;48.492;9.214;2023-04-15T05:30:29;7.20;33.20
578;DHT22;275;48.492;9.214;2023-04-15T05:32:55;7.30;34.10
578;DHT22;275;48.492;9.214;2023-04-15T05:35:22;7.10;33.90
578;DHT22;275;48.492;9.214;2023-04-15T05:37:49;6.90;34.50
578;DHT22;275;48.492;9.214;2023-04-15T05:40:16;6.80;35.00
578;DHT22;275;48.492;9.214;2023-04-15T05:42:43;7.10;34.40
578;DHT22;275;48.492;9.214;2023-04-15T05:45:11;7.20;33.90
578;DHT22;275;48.492;9.214;2023-04-15T05:47:38;7.30;33.70
578;DHT22;275;48.492;9.214;2023-04-15T05:50:06;7.60;33.10
578;DHT22;275;48.492;9.214;2023-04-15T05:52:32;8.00;31.90
578;DHT22;275;48.492;9.214;2023-04-15T05:54:59;8.40;31.40
578;DHT22;275;48.492;9.214;2023-04-15T05:57:26;8.80;30.50
578;DHT22;275;48.492;9.214;2023-04-15T05:59:53;9.00;30.10
578;DHT22;275;48.492;9.214;2023-04-15T06:02:23;9.20;29.70
578;DHT22;275;48.492;9.214;2023-04-15T06:04:49;9.30;29.70
578;DHT22;275;48.492;9.214;2023-04-15T06:07:16;9.40;29.50
578;DHT22;275;48.492;9.214;2023-04-15T06:09:43;9.90;28.60
578;DHT22;275;48.492;9.214;2023-04-15T06:12:10;9.90;29.00
578;DHT22;275;48.492;9.214;2023-04-15T06:14:37;9.80;29.20
578;DHT22;275;48.492;9.214;2023-04-15T06:17:04;9.50;29.30
578;DHT22;275;48.492;9.214;2023-04-15T06:19:33;9.60;29.30
578;DHT22;275;48.492;9.214;2023-04-15T06:22:01;10.00;28.10
578;DHT22;275;48.492;9.214;2023-04-15T06:24:28;10.00;28.30
578;DHT22;275;48.492;9.214;2023-04-15T06:26:55;10.50;27.50
578;DHT22;275;48.492;9.214;2023-04-15T06:29:22;10.60;26.90
578;DHT22;275;48.492;9.214;2023-04-15T06:31:50;10.80;26.60
578;DHT22;275;48.492;9.214;2023-04-15T06:34:16;11.10;26.20
578;DHT22;275;48.492;9.214;2023-04-15T06:36:45;10.70;26.60
578;DHT22;275;48.492;9.214;2023-04-15T06:39:11;10.80;26.40
578;DHT22;275;48.492;9.214;2023-04-15T06:41:38;11.10;26.00
578;DHT22;275;48.492;9.214;2023-04-15T06:44:05;11.40;25.70
578;DHT22;275;48.492;9.214;2023-04-15T06:46:32;11.50;25.10
578;DHT22;275;48.492;9.214;2023-04-15T06:48:59;11.30;25.50
578;DHT22;275;48.492;9.214;2023-04-15T06:51:26;11.50;25.30
578;DHT22;275;48.492;9.214;2023-04-15T06:53:54;11.20;25.60
578;DHT22;275;48.492;9.214;2023-04-15T06:56:21;11.00;25.90
578;DHT22;275;48.492;9.214;2023-04-15T06:58:48;11.10;26.00
578;DHT22;275;48.492;9.214;2023-04-15T07:01:15;11.00;26.20
578;DHT22;275;48.492;9.214;2023-04-15T07:03:41;11.10;26.20
578;DHT22;275;48.492;9.214;2023-04-15T07:06:08;11.40;25.80
578;DHT22;275;48.492;9.214;2023-04-15T07:08:35;11.30;25.80
578;DHT22;275;48.492;9.214;2023-04-15T07:11:04;11.30;25.90
578;DHT22;275;48.492;9.214;2023-04-15T07:13:31;11.60;25.40
578;DHT22;275;48.492;9.214;2023-04-15T07:16:00;10.90;26.40
578;DHT22;275;48.492;9.214;2023-04-15T07:18:29;10.90;26.90
578;DHT22;275;48.492;9.214;2023-04-15T07:20:56;11.50;26.20
578;DHT22;275;48.492;9.214;2023-04-15T07:23:23;12.10;25.30
578;DHT22;275;48.492;9.214;2023-04-15T07:25:50;12.00;25.30
578;DHT22;275;48.492;9.214;2023-04-15T07:28:18;12.00;25.40
578;DHT22;275;48.492;9.214;2023-04-15T07:30:45;12.80;24.50
578;DHT22;275;48.492;9.214;2023-04-15T07:33:12;14.10;23.40
578;DHT22;275;48.492;9.214;2023-04-15T07:35:39;14.70;22.40
578;DHT22;275;48.492;9.214;2023-04-15T07:38:06;15.60;21.20
578;DHT22;275;48.492;9.214;2023-04-15T07:40:33;15.60;20.80
578;DHT22;275;48.492;9.214;2023-04-15T07:43:00;15.70;20.90
578;DHT22;275;48.492;9.214;2023-04-15T07:45:29;16.20;20.50
578;DHT22;275;48.492;9.214;2023-04-15T07:47:56;16.50;20.10
578;DHT22;275;48.492;9.214;2023-04-15T07:50:23;16.90;19.80
578;DHT22;275;48.492;9.214;2023-04-15T07:52:50;18.20;18.90
578;DHT22;275;48.492;9.214;2023-04-15T07:55:18;19.30;17.30
578;DHT22;275;48.492;9.214;2023-04-15T07:57:48;20.00;16.80
578;DHT22;275;48.492;9.214;2023-04-15T08:00:15;21.80;15.20
578;DHT22;275;48.492;9.214;2023-04-15T08:02:44;23.90;13.60
578;DHT22;275;48.492;9.214;2023-04-15T08:05:12;25.30;11.90
578;DHT22;275;48.492;9.214;2023-04-15T08:07:39;25.60;11.10
578;DHT22;275;48.492;9.214;2023-04-15T08:10:07;23.70;12.10
578;DHT22;275;48.492;9.214;2023-04-15T08:12:36;23.10;13.00
578;DHT22;275;48.492;9.214;2023-04-15T08:15:04;23.90;13.00
578;DHT22;275;48.492;9.214;2023-04-15T08:17:32;23.80;12.20
578;DHT22;275;48.492;9.214;2023-04-15T08:20:00;22.70;13.00
578;DHT22;275;48.492;9.214;2023-04-15T08:22:28;23.30;12.40
578;DHT22;275;48.492;9.214;2023-04-15T08:24:54;22.90;12.30
578;DHT22;275;48.492;9.214;2023-04-15T08:27:22;22.50;13.10
578;DHT22;275;48.492;9.214;2023-04-15T08:29:51;22.40;12.70
578;DHT22;275;48.492;9.214;2023-04-15T08:32:18;22.90;12.50
578;DHT22;275;48.492;9.214;2023-04-15T08:34:44;22.50;12.50
578;DHT22;275;48.492;9.214;2023-04-15T08:37:13;21.30;13.60
578;DHT22;275;48.492;9.214;2023-04-15T08:39:40;21.60;13.50
578;DHT22;275;48.492;9.214;2023-04-15T08:42:11;21.60;13.30
578;DHT22;275;48.492;9.214;2023-04-15T08:44:42;20.80;14.30
578;DHT22;275;48.492;9.214;2023-04-15T08:47:12;20.40;15.00
578;DHT22;275;48.492;9.214;2023-04-15T08:49:40;22.30;13.70
578;DHT22;275;48.492;9.214;2023-04-15T08:52:08;23.30;12.90
578;DHT22;275;48.492;9.214;2023-04-15T08:54:39;23.30;12.60
578;DHT22;275;48.492;9.214;2023-04-15T08:57:06;23.00;12.60
578;DHT22;275;48.492;9.214;2023-04-15T08:59:33;21.70;13.90
578;DHT22;275;48.492;9.214;2023-04-15T09:02:01;21.30;14.20
578;DHT22;275;48.492;9.214;2023-04-15T09:04:29;20.30;17.00
578;DHT22;275;48.492;9.214;2023-04-15T09:06:56;20.60;15.40
578;DHT22;275;48.492;9.214;2023-04-15T09:09:23;20.70;14.50
578;DHT22;275;48.492;9.214;2023-04-15T09:11:51;21.20;14.20
578;DHT22;275;48.492;9.214;2023-04-15T09:14:18;21.20;13.80
578;DHT22;275;48.492;9.214;2023-04-15T09:16:58;21.50;13.40
578;DHT22;275;48.492;9.214;2023-04-15T09:19:28;21.10;13.70
578;DHT22;275;48.492;9.214;2023-04-15T09:21:56;20.70;14.20
578;DHT22;275;48.492;9.214;2023-04-15T09:24:23;22.10;13.40
578;DHT22;275;48.492;9.214;2023-04-15T09:26:53;22.90;12.20
578;DHT22;275;48.492;9.214;2023-04-15T09:29:23;23.70;11.80
578;DHT22;275;48.492;9.214;2023-04-15T09:31:51;24.50;10.90
578;DHT22;275;48.492;9.214;2023-04-15T09:34:34;24.70;10.20
578;DHT22;275;48.492;9.214;2023-04-15T09:37:01;23.30;11.40
578;DHT22;275;48.492;9.214;2023-04-15T09:39:44;22.30;12.10
578;DHT22;275;48.492;9.214;2023-04-15T09:42:14;21.70;12.70
578;DHT22;275;48.492;9.214;2023-04-15T09:44:42;21.20;13.20
578;DHT22;275;48.492;9.214;2023-04-15T09:47:09;20.90;12.60
578;DHT22;275;48.492;9.214;2023-04-15T09:49:55;19.50;14.10
578;DHT22;275;48.492;9.214;2023-04-15T09:52:22;19.60;14.20
578;DHT22;275;48.492;9.214;2023-04-15T09:54:52;20.20;14.80
578;DHT22;275;48.492;9.214;2023-04-15T09:57:21;20.20;14.70
578;DHT22;275;48.492;9.214;2023-04-15T09:59:48;20.20;15.10
578;DHT22;275;48.492;9.214;2023-04-15T10:02:17;20.10;15.00
578;DHT22;275;48.492;9.214;2023-04-15T10:04:47;20.40;14.30
578;DHT22;275;48.492;9.214;2023-04-15T10:07:14;20.00;14.00
578;DHT22;275;48.492;9.214;2023-04-15T10:09:44;20.20;13.60
578;DHT22;275;48.492;9.214;2023-04-15T10:12:11;20.30;13.50
578;DHT22;275;48.492;9.214;2023-04-15T10:14:41;19.60;13.80
578;DHT22;275;48.492;9.214;2023-04-15T10:17:10;19.10;14.60
578;DHT22;275;48.492;9.214;2023-04-15T10:19:38;19.10;15.10
578;DHT22;275;48.492;9.214;2023-04-15T10:22:06;19.90;14.50
578;DHT22;275;48.492;9.214;2023-04-15T10:24:34;20.80;13.20
578;DHT22;275;48.492;9.214;2023-04-15T10:27:02;22.00;12.50
578;DHT22;275;48.492;9.214;2023-04-15T10:29:30;23.40;11.30
578;DHT22;275;48.492;9.214;2023-04-15T10:31:58;23.80;10.40
578;DHT22;275;48.492;9.214;2023-04-15T10:34:26;23.00;10.60
578;DHT22;275;48.492;9.214;2023-04-15T10:36:54;21.80;11.80
578;DHT22;275;48.492;9.214;2023-04-15T10:39:41;21.80;11.90
578;DHT22;275;48.492;9.214;2023-04-15T10:42:09;21.80;11.60
578;DHT22;275;48.492;9.214;2023-04-15T10:44:37;21.40;11.70
578;DHT22;275;48.492;9.214;2023-04-15T10:47:09;20.90;12.20
578;DHT22;275;48.492;9.214;2023-04-15T10:49:45;19.90;12.90
578;DHT22;275;48.492;9.214;2023-04-15T10:52:14;19.00;14.20
578;DHT22;275;48.492;9.214;2023-04-15T10:54:42;19.00;14.10
578;DHT22;275;48.492;9.214;2023-04-15T10:57:15;18.70;14.40
578;DHT22;275;48.492;9.214;2023-04-15T11:00:09;18.50;14.30
578;DHT22;275;48.492;9.214;2023-04-15T11:02:45;18.50;14.50
578;DHT22;275;48.492;9.214;2023-04-15T11:05:15;17.90;15.00
578;DHT22;275;48.492;9.214;2023-04-15T11:07:51;17.80;15.20
578;DHT22;275;48.492;9.214;2023-04-15T11:13:21;17.90;15.00
578;DHT22;275;48.492;9.214;2023-04-15T11:15:48;18.10;14.90
578;DHT22;275;48.492;9.214;2023-04-15T11:18:18;18.80;14.70
578;DHT22;275;48.492;9.214;2023-04-15T11:20:47;19.00;14.10
578;DHT22;275;48.492;9.214;2023-04-15T11:23:17;19.00;14.10
578;DHT22;275;48.492;9.214;2023-04-15T11:25:44;20.10;13.10
578;DHT22;275;48.492;9.214;2023-04-15T11:28:12;20.40;12.40
578;DHT22;275;48.492;9.214;2023-04-15T11:30:41;20.80;12.10
578;DHT22;275;48.492;9.214;2023-04-15T11:33:08;19.40;13.30
578;DHT22;275;48.492;9.214;2023-04-15T11:35:39;19.60;13.20
578;DHT22;275;48.492;9.214;2023-04-15T11:38:08;20.10;13.00
578;DHT22;275;48.492;9.214;2023-04-15T11:40:35;20.30;12.80
578;DHT22;275;48.492;9.214;2023-04-15T11:43:04;19.60;13.50
578;DHT22;275;48.492;9.214;2023-04-15T11:45:31;19.80;13.50
578;DHT22;275;48.492;9.214;2023-04-15T11:48:05;18.50;14.70
578;DHT22;275;48.492;9.214;2023-04-15T11:50:32;17.00;16.60
578;DHT22;275;48.492;9.214;2023-04-15T11:53:02;17.30;16.40
578;DHT22;275;48.492;9.214;2023-04-15T11:55:30;18.40;15.50
578;DHT22;275;48.492;9.214;2023-04-15T11:58:08;19.60;14.10
578;DHT22;275;48.492;9.214;2023-04-15T12:00:36;19.90;13.50
578;DHT22;275;48.492;9.214;2023-04-15T12:03:11;19.70;13.40
578;DHT22;275;48.492;9.214;2023-04-15T12:06:03;19.60;13.40
578;DHT22;275;48.492;9.214;2023-04-15T12:08:50;19.70;13.10
578;DHT22;275;48.492;9.214;2023-04-15T12:11:18;19.40;13.40
578;DHT22;275;48.492;9.214;2023-04-15T12:13:46;19.30;12.30
578;DHT22;275;48.492;9.214;2023-04-15T12:16:16;18.80;12.40
578;DHT22;275;48.492;9.214;2023-04-15T12:18:44;18.70;12.30
578;DHT22;275;48.492;9.214;2023-04-15T12:21:12;18.50;12.60
578;DHT22;275;48.492;9.214;2023-04-15T12:23:46;18.10;14.10
578;DHT22;275;48.492;9.214;2023-04-15T12:26:15;18.00;14.50
578;DHT22;275;48.492;9.214;2023-04-15T12:28:42;18.00;14.30
578;DHT22;275;48.492;9.214;2023-04-15T12:31:10;17.90;14.40
578;DHT22;275;48.492;9.214;2023-04-15T12:33:38;18.00;14.60
578;DHT22;275;48.492;9.214;2023-04-15T12:36:05;18.60;13.80
578;DHT22;275;48.492;9.214;2023-04-15T12:38:32;18.60;13.40
578;DHT22;275;48.492;9.214;2023-04-15T12:40:59;19.10;12.70
578;DHT22;275;48.492;9.214;2023-04-15T12:43:27;18.80;13.20
578;DHT22;275;48.492;9.214;2023-04-15T12:45:54;18.40;14.00
578;DHT22;275;48.492;9.214;2023-04-15T12:48:21;18.40;13.70
578;DHT22;275;48.492;9.214;2023-04-15T12:50:48;18.20;13.90
578;DHT22;275;48.492;9.214;2023-04-15T12:53:14;18.70;14.00
578;DHT22;275;48.492;9.214;2023-04-15T12:55:41;19.30;13.70
578;DHT22;275;48.492;9.214;2023-04-15T12:58:08;19.90;13.10
578;DHT22;275;48.492;9.214;2023-04-15T13:00:37;20.00;13.10
578;DHT22;275;48.492;9.214;2023-04-15T13:03:04;19.70;13.30
578;DHT22;275;48.492;9.214;2023-04-15T13:05:31;19.30;13.80
578;DHT22;275;48.492;9.214;2023-04-15T13:07:58;19.30;13.60
578;DHT22;275;48.492;9.214;2023-04-15T13:10:25;19.20;12.70
578;DHT22;275;48.492;9.214;2023-04-15T13:12:52;18.20;12.70
578;DHT22;275;48.492;9.214;2023-04-15T13:15:21;18.10;12.90
578;DHT22;275;48.492;9.214;2023-04-15T13:17:49;17.90;12.70
578;DHT22;275;48.492;9.214;2023-04-15T13:20:16;17.70;13.10
578;DHT22;275;48.492;9.214;2023-04-15T13:22:43;16.90;14.70
578;DHT22;275;48.492;9.214;2023-04-15T13:25:10;16.50;17.30
578;DHT22;275;48.492;9.214;2023-04-15T13:27:37;15.20;23.10
578;DHT22;275;48.492;9.214;2023-04-15T13:30:04;14.80;24.40
578;DHT22;275;48.492;9.214;2023-04-15T13:32:32;14.60;24.90
578;DHT22;275;48.492;9.214;2023-04-15T13:35:00;14.00;25.90
578;DHT22;275;48.492;9.214;2023-04-15T13:37:27;14.10;26.20
578;DHT22;275;48.492;9.214;2023-04-15T13:39:54;13.60;26.90
578;DHT22;275;48.492;9.214;2023-04-15T13:42:21;13.70;26.60
578;DHT22;275;48.492;9.214;2023-04-15T13:44:49;13.30;27.30
578;DHT22;275;48.492;9.214;2023-04-15T13:47:16;13.80;26.70
578;DHT22;275;48.492;9.214;2023-04-15T13:49:44;13.90;26.60
578;DHT22;275;48.492;9.214;2023-04-15T13:52:13;14.30;26.20
578;DHT22;275;48.492;9.214;2023-04-15T13:54:39;14.70;25.20
578;DHT22;275;48.492;9.214;2023-04-15T13:57:06;14.70;25.80
578;DHT22;275;48.492;9.214;2023-04-15T13:59:33;14.80;25.50
578;DHT22;275;48.492;9.214;2023-04-15T14:02:01;14.70;25.90
578;DHT22;275;48.492;9.214;2023-04-15T14:04:28;15.40;24.60
578;DHT22;275;48.492;9.214;2023-04-15T14:06:55;15.60;23.60
578;DHT22;275;48.492;9.214;2023-04-15T14:09:23;14.80;23.70
578;DHT22;275;48.492;9.214;2023-04-15T14:11:50;14.00;24.90
578;DHT22;275;48.492;9.214;2023-04-15T14:14:17;14.40;25.20
578;DHT22;275;48.492;9.214;2023-04-15T14:16:44;15.20;24.50
578;DHT22;275;48.492;9.214;2023-04-15T14:19:12;15.40;24.20
578;DHT22;275;48.492;9.214;2023-04-15T14:21:39;15.60;24.40
578;DHT22;275;48.492;9.214;2023-04-15T14:24:05;15.90;23.60
578;DHT22;275;48.492;9.214;2023-04-15T14:26:34;15.60;22.10
578;DHT22;275;48.492;9.214;2023-04-15T14:29:00;15.80;21.20
578;DHT22;275;48.492;9.214;2023-04-15T14:31:27;15.40;22.40
578;DHT22;275;48.492;9.214;2023-04-15T14:33:54;15.30;22.40
578;DHT22;275;48.492;9.214;2023-04-15T14:36:21;14.70;21.40
578;DHT22;275;48.492;9.214;2023-04-15T14:38:48;14.40;21.50
578;DHT22;275;48.492;9.214;2023-04-15T14:41:14;14.20;22.40
578;DHT22;275;48.492;9.214;2023-04-15T14:43:43;14.50;20.40
578;DHT22;275;48.492;9.214;2023-04-15T14:46:10;14.70;19.90
578;DHT22;275;48.492;9.214;2023-04-15T14:48:38;15.30;19.80
578;DHT22;275;48.492;9.214;2023-04-15T14:51:05;14.90;20.60
578;DHT22;275;48.492;9.214;2023-04-15T14:53:32;15.00;20.60
578;DHT22;275;48.492;9.214;2023-04-15T14:55:59;15.50;20.00
578;DHT22;275;48.492;9.214;2023-04-15T14:58:26;15.60;20.10
578;DHT22;275;48.492;9.214;2023-04-15T15:00:54;15.70;20.00
578;DHT22;275;48.492;9.214;2023-04-15T15:03:22;16.00;19.40
578;DHT22;275;48.492;9.214;2023-04-15T15:05:49;15.40;19.40
578;DHT22;275;48.492;9.214;2023-04-15T15:08:15;15.50;18.80
578;DHT22;275;48.492;9.214;2023-04-15T15:10:42;15.80;18.20
578;DHT22;275;48.492;9.214;2023-04-15T15:13:09;15.80;17.50
578;DHT22;275;48.492;9.214;2023-04-15T15:15:36;15.40;18.20
578;DHT22;275;48.492;9.214;2023-04-15T15:18:05;15.80;17.50
578;DHT22;275;48.492;9.214;2023-04-15T15:20:32;15.60;17.70
578;DHT22;275;48.492;9.214;2023-04-15T15:22:59;15.50;16.20
578;DHT22;275;48.492;9.214;2023-04-15T15:25:26;15.20;15.70
578;DHT22;275;48.492;9.214;2023-04-15T15:27:53;15.00;16.80
578;DHT22;275;48.492;9.214;2023-04-15T15:30:20;14.90;14.10
578;DHT22;275;48.492;9.214;2023-04-15T15:32:47;14.40;14.50
578;DHT22;275;48.492;9.214;2023-04-15T15:35:15;14.30;13.80
578;DHT22;275;48.492;9.214;2023-04-15T15:37:42;14.50;14.20
578;DHT22;275;48.492;9.214;2023-04-15T15:40:10;14.70;14.50
578;DHT22;275;48.492;9.214;2023-04-15T15:42:37;14.80;14.80
578;DHT22;275;48.492;9.214;2023-04-15T15:45:04;14.30;16.30
578;DHT22;275;48.492;9.214;2023-04-15T15:47:31;14.40;17.00
578;DHT22;275;48.492;9.214;2023-04-15T15:49:59;14.40;17.70
578;DHT22;275;48.492;9.214;2023-04-15T15:52:28;14.40;18.30
578;DHT22;275;48.492;9.214;2023-04-15T15:54:54;14.50;19.50
578;DHT22;275;48.492;9.214;2023-04-15T15:57:21;14.90;18.40
578;DHT22;275;48.492;9.214;2023-04-15T15:59:48;14.70;18.50
578;DHT22;275;48.492;9.214;2023-04-15T16:02:15;14.20;19.10
578;DHT22;275;48.492;9.214;2023-04-15T16:04:42;14.30;19.80
578;DHT22;275;48.492;9.214;2023-04-15T16:07:09;14.30;19.30
578;DHT22;275;48.492;9.214;2023-04-15T16:09:38;14.40;20.40
578;DHT22;275;48.492;9.214;2023-04-15T16:12:07;14.20;20.40
578;DHT22;275;48.492;9.214;2023-04-15T16:14:34;14.00;20.90
578;DHT22;275;48.492;9.214;2023-04-15T16:17:01;14.10;21.00
578;DHT22;275;48.492;9.214;2023-04-15T16:19:27;14.10;21.30
578;DHT22;275;48.492;9.214;2023-04-15T16:21:54;13.90;21.80
578;DHT22;275;48.492;9.214;2023-04-15T16:24:21;14.10;21.70
578;DHT22;275;48.492;9.214;2023-04-15T16:26:49;13.90;21.90
578;DHT22;275;48.492;9.214;2023-04-15T16:29:16;13.50;22.80
578;DHT22;275;48.492;9.214;2023-04-15T16:31:43;13.70;22.40
578;DHT22;275;48.492;9.214;2023-04-15T16:34:10;13.90;22.20
578;DHT22;275;48.492;9.214;2023-04-15T16:36:37;14.10;22.30
578;DHT22;275;48.492;9.214;2023-04-15T16:39:05;13.50;22.20
578;DHT22;275;48.492;9.214;2023-04-15T16:41:32;13.80;22.00
578;DHT22;275;48.492;9.214;2023-04-15T16:44:01;13.90;22.00
578;DHT22;275;48.492;9.214;2023-04-15T16:46:27;13.40;22.10
578;DHT22;275;48.492;9.214;2023-04-15T16:48:55;13.40;22.70